Latest  Newer  Older  Last 2 hours slideshow  Last 24 hours slideshow  Refresh every 5 minutes 
Current image  Latest image  Rain/snow radar  Cloud coverage sat images 

All time is UTC (add 2 hours to UTC in wintertime, 3 hours to UTC in DST for Latvia local time)

2019/02/16 17:50 EVRA 161750Z 21010KT CAVOK 05/00 Q1012 R18/190095 NOSIG
2019/02/16 17:50 EVLA 161750Z AUTO 20009KT 9999 NCD 04/03 Q1014
2019/02/16 17:50 EVVA 161750Z AUTO 22016KT CAVOK 05/03 Q1011
2019/02/16 17:50 EYKA 161750Z 22008KT 180V250 CAVOK 04/00 Q1018 R08/29//95
2019/02/16 17:50 EYPA 161750Z 21009KT CAVOK 05/02 Q1016 R19/1///95
2019/02/16 17:50 EYSA 161750Z 22012KT CAVOK 04/01 Q1015 R14L/29//95 BLU NOSIG
2019/02/16 17:50 EYVI 161750Z 21008KT CAVOK 02/00 Q1019 R19/1///95 NOSIG



2019/02/16 17:50 EETN 161750Z 26020KT CAVOK 04/M00 Q1004 R08/19//95 NOSIG

   RIGA AIRPORT     EVRA               56 55N  023 58E   10   X     T          6 LV
   LIEPAJA INTL     EVLA        26406  56 31N  021 06E    4   X                8 LV
   VENTPILS         EVVA               57 21N  021 33E    6   X                8 LV
   KAUNAS           EYKA               54 54N  023 55E   77   X     T          6 LT
   PALANGA INTL     EYPA               55 55N  021 03E   10   X                6 LT
   SIAULIAI INTL    EYSA               55 54N  023 24E  135   X     T          6 LT
   VILNIUS INTL     EYVI        26730  54 38N  025 17E  197   X     T          6 LT
   KARDLA           EEKA        26116  58 59N  022 50E    4   X                8 EE
   KURESSAARE       EEKE               58 14N  022 31E    4   X                8 EE
   PARNU            EEPU               58 25N  024 28E   14   X                8 EE
   TALLINN          EETN        26038  59 24N  024 49E   40   X     T          8 EE
   TARTU            EETU               58 19N  026 41E   67   X                8 EE